ACT        NSW        VIC        QLD        SA        WA        TAS        NT        INFO        CALC            by VK5ZD

Past Date/Time: (dd/mm/yyyy hh:mm or blank for current data)    

  Atmospheric Gas Attenuation - ITU Rec 676-11   --------------- dB/100km ---------------
WA Stations Date Time Temp RH % AH g/m3 Dew Point Wind Direction Speed kph Gust kph Barometer mB Rainfall Since 9am 24GHz 47GHz 76GHz 122GHz 134GHz 241GHz
Albany Airport 02/09 01:30 12.4 71 7.76 7.3 20 28 1019.4 0 17.9 25.2 37.4 97.9 89.5 307.2
Badgingarra 02/09 01:30 9.5 86 7.83 7.3 6 7 1013.1 0 18.1 25.9 38.8 101.7 93.4 320.4
Barimunya 02/09 01:30 21.9 26 5.02 1.6 9 9 1017 0 11.7 18.9 24.1 62.5 49.3 167.0
Barrow Island 02/09 01:30 22.6 76 15.27 18.2 22 26 1017.8 0 33.2 34.4 62.6 165.2 175.9 610.3
Bickley 02/09 01:30 10.5 67 6.5 4.6 7 15 1013.1 0 15.2 23.5 33.0 86.3 74.8 255.3
Boolgeeda 02/09 01:30 20 36 6.22 4.5 2 4 1017.5 0 14.3 20.9 28.6 74.6 63.5 216.8
Bridgetown 02/09 01:30 10.9 79 7.86 7.4 2 4 1021.4 0 18.1 25.8 38.6 101.1 92.8 318.3
Broome 02/09 01:30 18.6 97 15.44 18.1 7 7 1015.5 0 33.9 36.3 66.6 175.8 187.8 651.2
Bunbury 02/09 01:30 14.3 63 7.74 7.4 11 17 1022.2 0 17.7 24.7 36.6 95.7 87.3 299.7
Busselton Airport 02/09 01:30 13.5 68 7.95 7.7 11 17 1021.6 0 18.2 25.2 37.7 98.8 90.9 312.1
Cape Leeuwin 02/09 01:30 15.1 75 9.68 10.7 43 54 1020.6 0 21.8 27.6 43.8 115.2 111.7 385.2
Cape Naturaliste 02/09 01:30 13.9 67 8.03 7.9 28 39 1021.6 0 18.4 25.3 37.8 99.1 91.5 314.2
Carnarvon 02/09 01:30 18.8 89 14.33 16.9 28 37 1020.7 0 31.5 34.4 61.6 162.4 171.2 593.3
Christmas Creek 02/09 01:30 23.3 26 5.44 2.7 6 7 1016.8 0 12.6 19.2 25.0 64.9 52.7 179.4
Christmas Island 02/09 01:30 23.6 92 19.57 22.2 22 33 1015.5 0 42.3 41.9 81.6 215.8 238.5 828.1
Collie East 02/09 01:30 10.6 82 8.01 7.7 0 0 1013.1 0 18.5 25.9 39.0 102.3 94.5 324.4
Coondewanna 02/09 01:30 16 36 4.9 1 4 7 1017.3 0 11.7 20.0 25.4 66.1 51.6 174.6
Cunderdin Airport 02/09 01:30 6.4 93 6.93 5.4 4 7 1022.8 0.2 16.3 25.6 37.0 96.6 85.4 291.8
Curtin 02/09 01:30 17 92 13.31 15.7 2 7 1014.8 0 29.5 33.0 58.0 153.0 159.2 551.4
Dalwallinu 02/09 01:30 9.4 80 7.24 6.1 13 17 1022.3 0 16.9 25.3 36.8 96.3 86.2 295.2
Derby 02/09 01:30 20.4 90 15.92 18.7 9 13 1015.5 0 34.8 36.4 67.2 177.6 190.6 661.2
Dwellingup 02/09 01:30 10.4 85 8.19 8 13 26 1022.6 0 18.9 26.6 40.3 105.5 98.0 336.4
Eliwana Airport 02/09 01:30 20.6 48 8.59 9.2 6 6 1013.1 0 19.2 24.0 36.5 95.8 90.1 310.3
Esperance 02/09 01:30 8.9 88 7.71 7 9 11 1020.7 0 17.9 26.1 38.9 102.0 93.1 319.1
Esperance Airport 02/09 01:30 7.7 89 7.22 6 11 13 1020.9 0 16.9 25.7 37.5 98.1 87.8 300.4
Eucla 02/09 01:30 8.8 88 7.66 6.9 6 7 1020.7 0 17.8 26.1 38.8 101.5 92.5 317.1
Fitzroy Crossing 02/09 01:30 17.8 38 5.77 3.3 0 0 1015.5 0 13.4 20.7 27.8 72.3 60.0 204.4
Forrest 02/09 01:30 10.1 93 8.8 9 1020.7 0 20.2 27.6 42.9 112.6 106.7 366.9
Fortescue Dave Forrest 02/09 01:30 24.7 27 6.11 4.5 15 20 1016.5 0 13.9 19.7 26.7 69.4 58.8 200.7
Garden Island 02/09 01:30 15.3 56 7.31 6.6 17 20 1023 0 16.8 23.8 34.5 90.2 80.9 277.3
Geraldton Airport 02/09 01:30 9.5 94 8.56 8.6 9 11 1023.1 0.2 19.7 27.5 42.3 111.0 104.3 358.6
Gerangamete (Cfa) 02/09 03:10 10.2 92 8.76 9 11 17 1013.1 9.4 20.1 27.2 42.3 111.2 105.3 362.2
Giles* 02/09 03:00 24.5 24 5.37 2.6 17 20 1017 0 12.4 18.8 24.4 63.5 51.3 174.4
Gingin Airport 02/09 01:30 7.9 91 7.48 6.5 0 0 1023.1 0 17.5 26.1 38.6 100.9 91.3 312.7
Golden Grove 02/09 01:30 10.6 89 8.69 8.9 6 7 1021.3 0 19.9 27.3 42.2 110.7 104.5 359.3
Gooseberry Hill 02/09 01:30 11.7 60 6.28 4.2 4 6 1013.1 0 14.7 22.8 31.7 82.8 70.9 241.9
Gudai-Darri Mine 02/09 01:30 26.2 23 5.66 3.5 11 15 1013.1 0 12.9 18.7 24.7 64.3 53.0 180.5
Halls Creek 02/09 03:00 18.1 35 5.41 2.4 6 7 1016.6 0 12.7 20.2 26.5 68.9 55.9 189.7
Hopetoun North 02/09 01:30 10.2 76 7.23 6.2 11 17 1020.2 0 16.8 25.0 36.3 95.0 85.1 291.2
Iron Bridge Mine 02/09 01:30 22.6 35 7.03 6.4 2 4 1016 0 15.9 21.4 30.4 79.3 70.3 240.9
Jacup 02/09 01:30 8 80 6.62 4.8 7 11 1020.6 0 15.6 24.6 34.9 91.1 79.3 270.8
Jandakot 02/09 01:30 11.2 84 8.52 8.6 0 0 1022.9 0 19.5 26.9 41.2 108.1 101.5 348.8
Kalgoorlie-Boulder 02/09 01:30 12.4 78 8.52 8.7 7 9 1020.2 0 19.5 26.4 40.5 106.2 99.7 342.8
Kalumburu 02/09 03:00 19.3 96 15.92 18.6 0 0 1016.4 0 34.9 36.9 68.3 180.4 193.6 671.4
Karijini North 02/09 01:30 26.9 22 5.63 3.4 24 30 1016.5 0 12.8 18.7 24.5 63.7 52.4 178.5
Karratha 02/09 01:30 22.3 67 13.23 15.9 19 24 1016.9 0 28.9 31.0 53.9 142.2 147.7 511.7
Katanning Rs 02/09 01:30 10.2 69 6.57 4.8 13 19 1021.4 0.2 15.4 24.0 33.8 88.1 76.5 261.3
Koolan Island / Koolan Central 02/09 01:30 23.6 89 18.93 21.7 4 6 1013.1 0 41.0 40.6 78.3 207.1 227.9 791.5
Kununurra Airport 02/09 03:00 17.9 93 14.2 16.8 6 7 1015.9 0 31.3 34.3 61.4 162.1 170.7 591.4
Lake Grace 02/09 01:30 6.5 85 6.38 4.2 6 7 1021.5 0 15.1 24.7 34.6 90.3 77.7 264.8
Lancelin (Defence) 02/09 01:30 11.9 88 9.32 10 9 11 1022.8 0.2 21.2 28.0 44.2 116.1 111.6 384.3
Laverton 02/09 01:30 13.3 92 10.63 12 0 0 1019.2 0 24.0 29.7 48.9 128.6 127.6 440.6
Learmonth 02/09 01:30 18.5 68 10.76 12.5 22 28 1019 0 23.9 28.2 46.3 121.7 121.0 418.1
Legendre Island 02/09 01:30 22.9 78 15.94 18.9 30 37 1016.8 0 34.6 35.5 65.2 172.3 184.9 641.5
Leinster 02/09 01:30 12.5 75 8.25 8.2 0 0 1018.2 0 18.9 25.9 39.3 102.9 95.8 329.1
Leonora Airport 02/09 01:30 12.9 84 9.47 10.3 0 6 1019.1 0 21.5 27.8 44.1 115.9 111.9 385.5
Lombadina 02/09 01:30 21.5 95 17.91 20.7 2 6 1015.7 0 39.0 39.7 75.7 200.1 218.5 758.5
Mandora 02/09 01:30 18 73 11.21 13.1 9 9 1015.2 0 24.9 29.0 48.2 127.0 127.5 440.9
Mandurah 02/09 01:30 15.2 56 7.27 6.5 9 13 1022.5 0 16.7 23.8 34.4 89.8 80.5 275.7
Manjimup 02/09 01:30 10.2 80 7.61 6.9 15 20 1020.8 0 17.6 25.6 37.9 99.2 90.2 309.2
Marble Bar 02/09 01:30 26.9 24 6.14 4.6 13 17 1015.7 0 13.9 19.3 26.0 67.8 57.5 196.4
Mardie 02/09 01:30 19.4 89 14.85 17.5 6 6 1017.6 0 32.6 35.0 63.3 167.0 177.2 614.3
Meekatharra 02/09 01:30 16.1 65 8.91 9.5 17 24 1019.4 0 20.1 26.0 40.2 105.3 100.0 344.4
Millendon (Swan Valley) 02/09 01:30 9 91 8.03 7.6 2 4 1022.8 0 18.6 26.7 40.3 105.6 97.5 334.7
Morawa Airport 02/09 01:30 10.6 82 8.01 7.7 9 15 1023 0 18.5 26.2 39.4 103.3 95.3 327.0
Mount Keith 02/09 01:30 14.6 63 7.88 7.6 6 7 1019 0 18.0 24.7 36.8 96.4 88.5 304.0
Mount Magnet Airport 02/09 01:30 12.7 91 10.13 11.3 7 9 1020.7 0 22.9 29.1 47.1 123.9 121.6 419.5
Munglinup West 02/09 01:30 6.2 88 6.48 4.4 6 6 1020.8 0 15.4 24.9 35.1 91.7 79.3 270.4
Newdegate 02/09 01:30 4.8 86 5.77 2.7 7 9 1021.2 0 13.9 24.1 32.8 85.5 71.1 241.5
Newman Airport 02/09 01:30 19.2 29 4.78 0.8 9 13 1016.8 0 11.3 19.1 24.1 62.5 48.3 163.4
Norseman Airport 02/09 01:30 7.8 94 7.67 6.9 0 0 1020.3 0 17.9 26.4 39.3 102.9 93.8 321.6
North Island 02/09 01:30 17.3 69 10.16 11.6 24 30 1023.3 0 22.7 27.8 44.7 117.4 115.2 397.6
Onslow Airport 02/09 01:30 20.5 73 12.99 15.5 20 28 1018.5 0 28.5 31.3 54.3 143.0 148.0 512.6
Paraburdoo 02/09 01:30 18.9 31 5.02 1.4 4 6 1017.4 0 11.8 19.5 25.0 64.8 51.1 173.2
Pearce 02/09 01:30 8.7 88 7.61 6.8 6 9 1022.6 0 17.7 26.1 38.7 101.3 92.1 315.6
Perth 02/09 01:30 11.3 81 8.26 8.2 0 0 1023 0 19.0 26.4 40.1 105.1 97.8 336.0
Perth Airport 02/09 01:30 10.4 77 7.42 6.5 7 9 1022.6 0 17.2 25.3 37.1 97.1 87.5 299.9
Port Hedland 02/09 01:30 19.6 83 14.01 16.6 7 9 1015.7 0 30.8 33.3 59.2 156.2 164.1 568.6
Portable Btsa (Dfes) 02/09 01:20 16.2 79 10.89 12.5 11 13 1013.1 0 24.4 28.9 47.9 126.1 125.9 434.9
Portable Btsd (Dfes) 02/09 01:20 10.5 73 7.08 5.9 9 9 1013.1 0 16.5 24.4 35.3 92.4 82.3 281.5
Portable Btse (Dfes) 02/09 01:20 12.3 72 7.82 7.4 2 6 1013.1 0 18.0 25.1 37.4 98.0 89.9 308.7
Portable Btsf (Dfes) 02/09 01:00 15.5 71 9.38 10.4 2 9 1013.1 0 21.2 26.7 42.1 110.5 106.5 367.0
Portable Btsh (Dfes) 02/09 01:20 7.9 100 8.22 7.9 0 0 1013.1 0 19.1 27.0 41.2 108.3 100.8 346.2
Portable Btsj (Dfes) 02/09 01:20 13.3 81 9.36 10.2 4 6 1013.1 0 21.2 27.3 43.2 113.4 109.3 376.5
Portable Btsl (Dfes) 02/09 01:20 4.9 90 6.08 3.4 2 4 1013.1 0 14.6 24.3 33.7 88.0 74.7 254.1
Portable Btsm (Dfes) 02/09 01:20 17.7 41 6.19 4.3 2 4 1013.1 0 14.3 21.2 29.1 76.0 64.7 220.9
Portable Btsn (Dfes) 02/09 01:20 14 78 9.41 10.3 15 17 1013.1 0 21.3 27.2 43.0 113.0 109.0 375.5
Portable Btso (Dfes) 02/09 01:20 10.4 82 7.9 7.5 2 6 1013.1 0 18.2 25.7 38.6 101.3 93.3 320.0
Red Rocks Point 02/09 01:30 9.5 85 7.74 7.1 13 15 1020.9 0 17.9 26.0 38.8 101.5 92.8 318.1
Rocky Gully South 02/09 01:30 11 70 7.01 5.7 17 28 1013.1 0 16.3 24.1 34.8 91.1 80.8 276.6
Roebourne Airport 02/09 01:30 23.5 45 9.52 10.9 15 20 1016.7 0 21.1 24.7 38.7 101.7 98.1 338.7
Rottnest Island 02/09 01:30 14.7 54 6.8 5.5 17 24 1022.7 0 15.7 23.2 32.8 85.7 75.2 257.1
Salmon Gums Rs 02/09 01:30 2.7 99 5.77 2.6 4 6 1013.1 0 14.0 24.4 33.3 87.1 72.5 246.3
Shannon 02/09 01:30 10.9 80 7.96 7.6 11 20 1013.1 0 18.4 25.7 38.6 101.3 93.5 320.8
Shark Bay Airport 02/09 01:30 16.3 90 12.49 14.7 15 24 1021.7 0 27.8 32.0 55.2 145.5 149.4 517.0
Solomon Airport 02/09 01:30 18.5 35 5.54 2.8 2 4 1017.1 0 12.9 20.3 26.8 69.7 57.0 194.0
Southern Cross Airport 02/09 01:30 6.1 98 7.16 5.8 0 0 1021.7 0 16.8 26.1 38.0 99.5 88.8 303.9
Swanbourne 02/09 01:30 12.6 97 10.73 12.1 6 6 1013.1 0.2 24.2 29.9 49.4 130.2 129.7 447.6
Telfer 02/09 01:30 25.7 23 5.51 3 7 11 1015.6 0 12.6 18.7 24.5 63.6 51.9 176.6
Thevenard Island 02/09 01:30 21.3 76 14.17 16.9 20 24 1018.5 0 31.0 33.0 58.8 155.1 163.1 565.3
Troughton Island 02/09 03:00 24 86 18.71 21.5 6 7 1016.3 0 40.4 40.1 77.0 203.7 223.8 777.0
Truscott 02/09 03:00 20.6 95 17 19.8 6 7 1015.9 0 37.1 38.4 72.2 190.8 206.8 717.6
Walpole North 02/09 01:30 11.5 84 8.68 8.9 20 33 1019.3 1.4 19.9 26.9 41.6 109.1 103.0 354.1
Wandering 02/09 01:30 4.9 93 6.28 3.9 7 11 1013.1 0.2 15.0 24.6 34.5 90.2 77.4 263.6
Warburton 02/09 03:00 18.3 60 9.38 10.4 9 9 1018.3 0 21.0 26.0 40.8 107.2 103.1 355.6
West Angelas 02/09 01:30 17.1 38 5.53 2.7 2 4 1016.8 0 13.0 20.6 27.2 70.8 57.9 196.8
West Musgrave Airport 02/09 01:30 18.1 59 9.12 10 11 13 1013.1 0 20.5 25.5 39.7 104.2 99.7 343.5
Wiluna Airport 02/09 01:30 13.6 66 7.77 7.4 0 0 1019 0 17.8 24.8 36.9 96.5 88.3 302.9
Witchcliffe West 02/09 01:30 13.6 68 8 7.8 19 28 1021.4 0 18.3 25.3 37.9 99.2 91.4 313.9
Wyndham Airport 02/09 03:00 21 74 13.55 16.2 6 7 1015.6 0 29.7 31.9 56.1 148.1 154.5 535.5
Yampi Sound (Defence) 02/09 01:30 17.7 89 13.43 15.9 4 4 1019.8 0 29.7 33.1 58.3 153.7 160.1 554.6

Last Refresh: 02-Sep-2026 03:17:18

Bureau of Meteorology